Aviation Digital Data Service (ADDS)

Output produced by METARs form (0733 UTC 20 November 2017)
found at http://aviationweather.gov/adds/metars/
 
KTYR 200520Z 2006/2106 00000KT P6SM BKN280 
     FM201500 17008KT P6SM BKN280